createdAt,value
2023-02-18T00:00:19.151Z,6.53
2023-02-18T00:05:42.745Z,6.52
2023-02-18T00:10:46.350Z,6.50
2023-02-18T00:15:49.910Z,6.50
2023-02-18T00:20:53.383Z,6.51
2023-02-18T00:26:09.969Z,6.57
2023-02-18T00:31:17.663Z,6.61
2023-02-18T00:36:22.459Z,6.68
2023-02-18T00:41:28.560Z,6.75
2023-02-18T00:46:32.508Z,6.80
2023-02-18T00:51:36.902Z,6.82
2023-02-18T00:56:40.419Z,6.72
2023-02-18T01:01:44.193Z,6.60
2023-02-18T01:06:47.966Z,6.51
2023-02-18T01:11:51.890Z,6.60
2023-02-18T01:16:55.509Z,6.74
2023-02-18T01:21:59.233Z,6.86
2023-02-18T01:27:02.749Z,6.99
2023-02-18T01:32:06.598Z,7.07
2023-02-18T01:37:10.190Z,7.08
2023-02-18T01:42:22.301Z,7.02
2023-02-18T01:47:25.714Z,7.02
2023-02-18T01:52:32.707Z,7.01
2023-02-18T01:57:39.085Z,6.99
2023-02-18T02:02:46.189Z,6.95
2023-02-18T02:07:52.512Z,7.01
2023-02-18T02:13:14.525Z,7.02
2023-02-18T02:18:25.305Z,7.10
2023-02-18T02:24:13.056Z,7.17
2023-02-18T02:29:16.569Z,7.17
2023-02-18T02:34:38.217Z,7.18
2023-02-18T02:39:53.198Z,7.17
2023-02-18T02:45:18.625Z,7.21
2023-02-18T02:50:50.101Z,7.21
2023-02-18T02:55:55.358Z,7.20
2023-02-18T03:01:15.116Z,7.19
2023-02-18T03:06:40.583Z,7.16
2023-02-18T03:12:12.668Z,7.14
2023-02-18T03:17:29.294Z,7.09
2023-02-18T03:22:39.467Z,7.10
2023-02-18T03:28:12.575Z,7.08
2023-02-18T03:33:20.698Z,7.11
2023-02-18T03:38:46.128Z,7.10
2023-02-18T03:43:55.514Z,7.07
2023-02-18T03:48:59.515Z,7.00
2023-02-18T03:54:03.022Z,7.01
2023-02-18T03:59:06.635Z,7.00
2023-02-18T04:04:10.315Z,6.98
2023-02-18T04:09:13.770Z,6.94
2023-02-18T04:14:17.488Z,6.89
2023-02-18T04:19:21.208Z,6.84
2023-02-18T04:24:24.619Z,6.81
2023-02-18T04:29:28.139Z,6.80
2023-02-18T04:34:31.754Z,6.77
2023-02-18T04:39:35.379Z,6.78
2023-02-18T04:44:39.314Z,6.76
2023-02-18T04:49:42.710Z,6.77
2023-02-18T04:54:46.333Z,6.76
2023-02-18T04:59:49.842Z,6.70
2023-02-18T05:04:53.463Z,6.64
2023-02-18T05:09:56.981Z,6.59
2023-02-18T05:15:00.399Z,6.57
2023-02-18T05:20:08.926Z,6.56
2023-02-18T05:25:13.479Z,6.52
2023-02-18T05:30:17.441Z,6.48
2023-02-18T05:35:20.916Z,6.19
2023-02-18T05:40:24.424Z,6.06
2023-02-18T05:45:27.940Z,6.07
2023-02-18T05:50:31.967Z,6.15
2023-02-18T05:55:39.453Z,6.24
2023-02-18T06:00:43.097Z,6.31
2023-02-18T06:05:50.351Z,6.36
2023-02-18T06:10:54.024Z,6.38
2023-02-18T06:15:57.979Z,6.42
2023-02-18T06:21:01.563Z,6.42
2023-02-18T06:26:10.031Z,6.42
2023-02-18T06:31:13.890Z,6.43
2023-02-18T06:36:17.736Z,6.44
2023-02-18T06:41:21.147Z,6.46
2023-02-18T06:46:24.772Z,6.50
2023-02-18T06:51:28.691Z,6.52
2023-02-18T06:56:32.156Z,6.52
2023-02-18T07:01:35.826Z,6.55
2023-02-18T07:06:39.441Z,6.58
2023-02-18T07:11:42.850Z,6.66
2023-02-18T07:16:46.326Z,6.74
2023-02-18T07:21:49.890Z,6.78
2023-02-18T07:26:53.402Z,6.80
2023-02-18T07:31:57.038Z,6.85
2023-02-18T07:37:00.577Z,6.93
2023-02-18T07:42:04.547Z,6.98
2023-02-18T07:47:10.944Z,7.05
2023-02-18T07:52:15.899Z,7.12
2023-02-18T07:57:19.513Z,7.16
2023-02-18T08:02:24.445Z,7.18
2023-02-18T08:07:28.075Z,7.16
2023-02-18T08:12:31.702Z,7.19
2023-02-18T08:17:39.724Z,7.25
2023-02-18T08:22:43.342Z,7.29
2023-02-18T08:27:46.955Z,7.29
2023-02-18T08:32:50.576Z,7.32
2023-02-18T08:37:54.542Z,7.34
2023-02-18T08:42:58.533Z,7.41
2023-02-18T08:48:17.647Z,7.46
2023-02-18T08:53:23.911Z,7.49
2023-02-18T08:58:27.505Z,7.50
2023-02-18T09:03:30.939Z,7.67
2023-02-18T09:08:34.741Z,7.83
2023-02-18T09:13:38.767Z,7.96
2023-02-18T09:18:42.566Z,8.04
2023-02-18T09:23:46.640Z,8.02
2023-02-18T09:28:51.257Z,8.04
2023-02-18T09:34:00.790Z,8.06
2023-02-18T09:39:04.325Z,8.06
2023-02-18T09:44:19.824Z,8.11
2023-02-18T09:49:26.798Z,8.17
2023-02-18T09:54:30.337Z,8.34
2023-02-18T09:59:33.957Z,8.39
2023-02-18T10:04:43.413Z,8.38
2023-02-18T10:09:48.666Z,8.31
2023-02-18T10:14:59.048Z,8.23
2023-02-18T10:20:07.802Z,8.23
2023-02-18T10:25:19.820Z,8.19
2023-02-18T10:30:33.391Z,8.14
2023-02-18T10:35:49.672Z,8.22
2023-02-18T10:41:16.630Z,8.24
2023-02-18T10:46:28.581Z,8.19
2023-02-18T10:51:37.548Z,8.25
2023-02-18T10:56:49.507Z,8.43
2023-02-18T11:02:03.368Z,8.52
2023-02-18T11:07:13.631Z,8.51
2023-02-18T11:12:27.793Z,8.43
2023-02-18T11:17:34.306Z,8.32
2023-02-18T11:22:40.147Z,8.32
2023-02-18T11:27:51.418Z,8.38
2023-02-18T11:32:59.064Z,8.22
2023-02-18T11:38:16.912Z,8.09
2023-02-18T11:43:21.140Z,8.12
2023-02-18T11:48:24.969Z,8.26
2023-02-18T11:53:34.110Z,8.50
2023-02-18T11:58:44.500Z,8.73
2023-02-18T12:04:09.511Z,8.74
2023-02-18T12:09:34.746Z,8.75
2023-02-18T12:14:38.356Z,8.60
2023-02-18T12:20:12.929Z,8.39
2023-02-18T12:25:39.763Z,8.26
2023-02-18T12:30:58.577Z,8.23
2023-02-18T12:36:08.491Z,8.17
2023-02-18T12:41:21.134Z,8.13
2023-02-18T12:46:52.808Z,8.10
2023-02-18T12:52:04.923Z,8.02
2023-02-18T12:57:30.049Z,7.98
2023-02-18T13:02:43.603Z,7.88
2023-02-18T13:07:59.224Z,7.88
2023-02-18T13:13:11.926Z,7.90
2023-02-18T13:18:27.116Z,7.88
2023-02-18T13:23:38.518Z,7.82
2023-02-18T13:29:07.019Z,7.89
2023-02-18T13:34:33.168Z,7.94
2023-02-18T13:39:39.339Z,7.96
2023-02-18T13:44:48.997Z,7.92
2023-02-18T13:49:53.535Z,7.91
2023-02-18T13:54:56.742Z,7.89
2023-02-18T14:00:05.393Z,7.88
2023-02-18T14:05:08.789Z,7.87
2023-02-18T14:10:38.729Z,7.85
2023-02-18T14:15:56.339Z,7.82
2023-02-18T14:21:21.290Z,7.81
2023-02-18T14:26:37.652Z,7.75
2023-02-18T14:31:49.670Z,7.73
2023-02-18T14:37:02.044Z,7.68
2023-02-18T14:42:24.095Z,7.62
2023-02-18T14:47:48.917Z,7.54
2023-02-18T14:52:56.331Z,7.48
2023-02-18T14:58:02.711Z,7.43
2023-02-18T15:03:14.939Z,7.36
2023-02-18T15:08:23.986Z,7.33
2023-02-18T15:13:33.732Z,7.29
2023-02-18T15:18:40.849Z,7.22
2023-02-18T15:23:44.450Z,7.17
2023-02-18T15:29:07.214Z,7.12
2023-02-18T15:34:38.377Z,7.04
2023-02-18T15:39:43.306Z,6.96
2023-02-18T15:44:50.674Z,6.90
2023-02-18T15:49:58.514Z,6.82
2023-02-18T15:55:08.306Z,6.75
2023-02-18T16:00:32.331Z,6.70
2023-02-18T16:05:38.690Z,6.66
2023-02-18T16:10:49.636Z,6.63
2023-02-18T16:15:53.912Z,6.60
2023-02-18T16:20:59.572Z,6.53
2023-02-18T16:26:23.982Z,6.47
2023-02-18T16:31:27.507Z,6.39
2023-02-18T16:36:32.751Z,6.32
2023-02-18T16:41:36.267Z,6.26
2023-02-18T16:46:39.685Z,6.20
2023-02-18T16:51:44.334Z,6.20
2023-02-18T16:56:48.558Z,6.17
2023-02-18T17:01:52.275Z,6.18
2023-02-18T17:06:55.998Z,6.12
2023-02-18T17:12:00.231Z,6.05
2023-02-18T17:17:11.424Z,5.99
2023-02-18T17:22:15.656Z,5.93
2023-02-18T17:27:19.070Z,5.88
2023-02-18T17:32:22.788Z,5.83
2023-02-18T17:37:26.217Z,5.74
2023-02-18T17:42:31.874Z,5.67
2023-02-18T17:47:35.286Z,5.57
2023-02-18T17:52:40.335Z,5.52
2023-02-18T17:57:45.219Z,5.45
2023-02-18T18:02:48.798Z,5.36
2023-02-18T18:07:52.729Z,5.31
2023-02-18T18:12:57.056Z,5.25
2023-02-18T18:18:01.083Z,5.21
2023-02-18T18:23:06.528Z,5.18
2023-02-18T18:28:10.273Z,5.10
2023-02-18T18:33:23.077Z,4.99
2023-02-18T18:38:28.466Z,4.87
2023-02-18T18:43:33.444Z,4.81
2023-02-18T18:48:37.137Z,4.74
2023-02-18T18:53:40.534Z,4.66
2023-02-18T18:58:43.958Z,4.65
2023-02-18T19:03:48.652Z,4.68
2023-02-18T19:08:52.126Z,4.65
2023-02-18T19:13:55.837Z,4.59
2023-02-18T19:18:59.243Z,4.52
2023-02-18T19:24:02.878Z,4.43
2023-02-18T19:29:06.277Z,4.40
2023-02-18T19:34:09.894Z,4.37
2023-02-18T19:39:13.411Z,4.38
2023-02-18T19:44:17.028Z,4.36
2023-02-18T19:49:20.649Z,4.34
2023-02-18T19:54:24.470Z,4.31
2023-02-18T19:59:30.446Z,4.27
2023-02-18T20:04:35.144Z,4.24
2023-02-18T20:09:39.429Z,4.18
2023-02-18T20:14:44.575Z,4.12
2023-02-18T20:19:48.295Z,4.07
2023-02-18T20:24:51.712Z,4.03
2023-02-18T20:29:55.332Z,4.05
2023-02-18T20:34:59.355Z,3.98
2023-02-18T20:40:02.972Z,3.92
2023-02-18T20:45:06.897Z,3.86
2023-02-18T20:50:10.425Z,3.87
2023-02-18T20:55:13.927Z,3.88
2023-02-18T21:00:17.866Z,3.92
2023-02-18T21:05:21.487Z,3.97
2023-02-18T21:10:25.414Z,3.99
2023-02-18T21:15:28.924Z,4.01
2023-02-18T21:20:32.532Z,4.01
2023-02-18T21:25:37.701Z,3.93
2023-02-18T21:30:44.782Z,3.82
2023-02-18T21:35:49.522Z,3.70
2023-02-18T21:40:53.347Z,3.59
2023-02-18T21:46:09.610Z,3.53
2023-02-18T21:51:32.942Z,3.51
2023-02-18T21:56:36.973Z,3.53
2023-02-18T22:01:41.475Z,3.56
2023-02-18T22:06:45.947Z,3.55
2023-02-18T22:11:49.480Z,3.50
2023-02-18T22:16:53.094Z,3.46
2023-02-18T22:21:56.905Z,3.42
2023-02-18T22:27:01.708Z,3.40
2023-02-18T22:32:05.616Z,3.28
2023-02-18T22:37:09.395Z,3.17
2023-02-18T22:42:13.013Z,3.08
2023-02-18T22:47:17.049Z,3.00
2023-02-18T22:52:20.706Z,2.90
2023-02-18T22:57:24.277Z,2.85
2023-02-18T23:02:27.992Z,2.78
2023-02-18T23:07:31.404Z,2.68
2023-02-18T23:12:35.037Z,2.63
2023-02-18T23:17:38.744Z,2.60
2023-02-18T23:22:42.269Z,2.56
2023-02-18T23:27:45.878Z,2.51
2023-02-18T23:32:49.704Z,2.49
2023-02-18T23:38:05.423Z,2.49
2023-02-18T23:43:09.028Z,2.47
2023-02-18T23:48:12.645Z,2.43
2023-02-18T23:53:16.263Z,2.36
2023-02-18T23:58:19.784Z,2.30
